createdAt,value
2022-08-26T00:01:54.402Z,2.97
2022-08-26T00:04:26.004Z,2.78
2022-08-26T00:06:55.772Z,2.88
2022-08-26T00:09:25.009Z,2.25
2022-08-26T00:11:54.275Z,2.35
2022-08-26T00:14:26.037Z,2.78
2022-08-26T00:16:55.817Z,2.47
2022-08-26T00:19:23.239Z,2.38
2022-08-26T00:21:50.662Z,2.03
2022-08-26T00:24:21.016Z,2.95
2022-08-26T00:26:49.372Z,2.90
2022-08-26T00:29:17.641Z,2.50
2022-08-26T00:31:45.690Z,2.83
2022-08-26T00:34:15.353Z,2.78
2022-08-26T00:36:42.950Z,2.70
2022-08-26T00:39:10.566Z,2.53
2022-08-26T00:41:41.626Z,2.80
2022-08-26T00:44:11.271Z,2.78
2022-08-26T00:46:46.897Z,2.30
2022-08-26T00:49:20.206Z,2.17
2022-08-26T00:51:54.189Z,2.20
2022-08-26T00:54:27.058Z,3.92
2022-08-26T00:57:16.386Z,2.45
2022-08-26T00:59:47.745Z,3.15
2022-08-26T01:02:21.047Z,2.63
2022-08-26T01:04:55.639Z,2.42
2022-08-26T01:07:27.678Z,2.60
2022-08-26T01:09:59.678Z,1.77
2022-08-26T01:12:31.948Z,2.42
2022-08-26T01:14:59.412Z,2.13
2022-08-26T01:17:26.476Z,2.88
2022-08-26T01:20:27.231Z,2.60
2022-08-26T01:23:08.728Z,2.33
2022-08-26T01:25:40.547Z,2.20
2022-08-26T01:28:25.961Z,2.83
2022-08-26T01:30:55.104Z,3.53
2022-08-26T01:33:29.978Z,2.15
2022-08-26T01:36:07.980Z,2.40
2022-08-26T01:38:35.739Z,2.22
2022-08-26T01:41:03.457Z,3.15
2022-08-26T01:43:51.186Z,2.25
2022-08-26T01:46:20.378Z,2.15
2022-08-26T01:48:49.193Z,2.08
2022-08-26T01:51:23.474Z,2.70
2022-08-26T01:53:51.037Z,2.20
2022-08-26T01:56:18.620Z,1.92
2022-08-26T01:58:52.835Z,2.47
2022-08-26T02:01:21.517Z,2.33
2022-08-26T02:03:56.302Z,1.80
2022-08-26T02:06:23.835Z,2.63
2022-08-26T02:08:55.498Z,2.15
2022-08-26T02:11:23.088Z,3.05
2022-08-26T02:13:55.227Z,1.83
2022-08-26T02:16:26.236Z,2.17
2022-08-26T02:18:55.343Z,2.90
2022-08-26T02:21:24.923Z,2.88
2022-08-26T02:23:52.648Z,2.05
2022-08-26T02:26:24.488Z,2.25
2022-08-26T02:29:02.945Z,2.10
2022-08-26T02:31:30.295Z,2.78
2022-08-26T02:34:13.955Z,2.30
2022-08-26T02:36:42.936Z,2.40
2022-08-26T02:39:10.954Z,1.80
2022-08-26T02:41:44.797Z,2.30
2022-08-26T02:44:12.357Z,2.00
2022-08-26T02:46:39.856Z,2.70
2022-08-26T02:49:07.453Z,2.47
2022-08-26T02:51:34.459Z,2.40
2022-08-26T02:54:01.473Z,1.88
2022-08-26T02:56:29.454Z,1.88
2022-08-26T02:58:56.966Z,2.33
2022-08-26T03:01:30.562Z,2.70
2022-08-26T03:03:59.499Z,2.13
2022-08-26T03:06:26.548Z,3.03
2022-08-26T03:08:53.534Z,1.98
2022-08-26T03:11:20.450Z,2.22
2022-08-26T03:13:48.965Z,2.38
2022-08-26T03:16:16.351Z,2.90
2022-08-26T03:18:43.463Z,2.40
2022-08-26T03:21:20.504Z,2.57
2022-08-26T03:23:48.082Z,1.95
2022-08-26T03:26:15.925Z,2.13
2022-08-26T03:29:01.814Z,2.70
2022-08-26T03:31:29.736Z,2.43
2022-08-26T03:33:59.619Z,2.55
2022-08-26T03:36:27.052Z,3.22
2022-08-26T03:38:54.562Z,3.65
2022-08-26T03:41:21.951Z,2.63
2022-08-26T03:43:50.991Z,2.50
2022-08-26T03:46:20.698Z,2.05
2022-08-26T03:48:48.082Z,3.83
2022-08-26T03:51:19.868Z,2.42
2022-08-26T03:53:48.402Z,2.55
2022-08-26T03:56:15.496Z,3.00
2022-08-26T03:58:44.612Z,2.00
2022-08-26T04:01:16.262Z,3.08
2022-08-26T04:04:00.269Z,2.63
2022-08-26T04:06:36.306Z,2.38
2022-08-26T04:09:06.921Z,2.45
2022-08-26T04:11:38.663Z,3.10
2022-08-26T04:14:17.721Z,2.50
2022-08-26T04:16:47.883Z,2.75
2022-08-26T04:19:16.057Z,3.20
2022-08-26T04:21:43.534Z,2.60
2022-08-26T04:24:12.322Z,2.53
2022-08-26T04:26:42.860Z,2.58
2022-08-26T04:29:18.238Z,2.72
2022-08-26T04:31:48.227Z,2.70
2022-08-26T04:34:16.036Z,2.33
2022-08-26T04:36:44.766Z,2.50
2022-08-26T04:39:16.616Z,2.83
2022-08-26T04:41:46.427Z,2.17
2022-08-26T04:44:13.870Z,2.30
2022-08-26T04:46:43.905Z,2.90
2022-08-26T04:49:11.499Z,2.47
2022-08-26T04:51:39.198Z,4.15
2022-08-26T04:54:07.382Z,2.65
2022-08-26T04:56:38.540Z,3.25
2022-08-26T04:59:16.612Z,3.97
2022-08-26T05:01:49.505Z,2.35
2022-08-26T05:04:18.916Z,3.10
2022-08-26T05:06:47.296Z,2.70
2022-08-26T05:09:15.191Z,4.03
2022-08-26T05:11:42.429Z,3.33
2022-08-26T05:14:09.816Z,3.63
2022-08-26T05:16:37.841Z,3.22
2022-08-26T05:19:08.597Z,3.03
2022-08-26T05:21:36.533Z,3.85
2022-08-26T05:24:04.793Z,3.38
2022-08-26T05:26:32.092Z,3.00
2022-08-26T05:28:59.090Z,3.45
2022-08-26T05:31:30.382Z,2.90
2022-08-26T05:33:58.037Z,2.85
2022-08-26T05:36:28.026Z,2.60
2022-08-26T05:38:55.922Z,3.85
2022-08-26T05:41:34.514Z,2.80
2022-08-26T05:44:06.206Z,2.90
2022-08-26T05:46:34.475Z,2.90
2022-08-26T05:49:01.894Z,3.35
2022-08-26T05:51:30.420Z,3.20
2022-08-26T05:53:58.688Z,3.15
2022-08-26T05:56:27.772Z,3.38
2022-08-26T05:58:58.431Z,3.28
2022-08-26T06:01:27.587Z,3.78
2022-08-26T06:04:01.771Z,3.45
2022-08-26T06:06:36.002Z,3.20
2022-08-26T06:09:05.825Z,3.67
2022-08-26T06:11:33.484Z,3.40
2022-08-26T06:14:04.225Z,3.42
2022-08-26T06:16:34.875Z,3.50
2022-08-26T06:19:10.538Z,3.75
2022-08-26T06:21:40.236Z,4.00
2022-08-26T06:24:29.585Z,4.22
2022-08-26T06:27:01.609Z,3.72
2022-08-26T06:29:31.200Z,3.35
2022-08-26T06:31:58.739Z,3.80
2022-08-26T06:34:30.656Z,3.40
2022-08-26T06:37:02.434Z,3.78
2022-08-26T06:39:30.941Z,3.70
2022-08-26T06:42:02.544Z,3.28
2022-08-26T06:44:34.289Z,3.58
2022-08-26T06:47:01.596Z,4.10
2022-08-26T06:49:28.637Z,3.45
2022-08-26T06:51:59.897Z,3.28
2022-08-26T06:54:32.330Z,4.75
2022-08-26T06:56:59.878Z,3.60
2022-08-26T06:59:26.975Z,3.95
2022-08-26T07:01:55.191Z,3.70
2022-08-26T07:04:23.390Z,4.30
2022-08-26T07:06:52.367Z,3.65
2022-08-26T07:09:21.903Z,3.20
2022-08-26T07:11:49.750Z,4.38
2022-08-26T07:14:19.296Z,3.40
2022-08-26T07:16:48.717Z,3.40
2022-08-26T07:19:17.579Z,3.17
2022-08-26T07:21:55.967Z,3.25
2022-08-26T07:24:22.998Z,4.90
2022-08-26T07:26:50.243Z,3.55
2022-08-26T07:29:18.724Z,3.72
2022-08-26T07:31:46.408Z,4.28
2022-08-26T07:34:14.029Z,3.67
2022-08-26T07:36:41.520Z,3.65
2022-08-26T07:39:09.063Z,3.50
2022-08-26T07:41:36.754Z,4.57
2022-08-26T07:44:04.355Z,3.80
2022-08-26T07:46:31.765Z,3.72
2022-08-26T07:48:58.839Z,4.25
2022-08-26T07:51:26.381Z,3.88
2022-08-26T07:53:54.827Z,3.95
2022-08-26T07:56:23.483Z,3.85
2022-08-26T07:58:52.965Z,5.35
2022-08-26T08:01:21.558Z,3.35
2022-08-26T08:03:51.652Z,3.65
2022-08-26T08:06:20.117Z,3.92
2022-08-26T08:08:47.901Z,4.00
2022-08-26T08:11:21.577Z,3.40
2022-08-26T08:13:56.571Z,4.13
2022-08-26T08:16:32.240Z,3.80
2022-08-26T08:19:00.431Z,3.97
2022-08-26T08:21:28.308Z,3.08
2022-08-26T08:23:57.484Z,3.28
2022-08-26T08:26:25.923Z,3.60
2022-08-26T08:28:57.953Z,3.15
2022-08-26T08:31:55.945Z,4.25
2022-08-26T08:34:15.938Z,3.30
2022-08-26T08:36:46.476Z,3.95
2022-08-26T08:39:13.910Z,3.47
2022-08-26T08:41:48.685Z,3.80
2022-08-26T08:44:21.508Z,3.13
2022-08-26T08:47:00.897Z,3.78
2022-08-26T08:49:29.343Z,3.67
2022-08-26T08:52:05.578Z,4.18
2022-08-26T08:54:33.855Z,2.80
2022-08-26T08:57:17.109Z,2.83
2022-08-26T08:59:54.396Z,2.80
2022-08-26T09:02:29.369Z,2.72
2022-08-26T09:05:28.629Z,3.67
2022-08-26T09:07:58.658Z,3.28
2022-08-26T09:10:36.729Z,3.88
2022-08-26T09:13:09.432Z,2.67
2022-08-26T09:15:46.714Z,2.85
2022-08-26T09:18:22.762Z,2.95
2022-08-26T09:20:59.988Z,3.75
2022-08-26T09:23:27.432Z,3.00
2022-08-26T09:26:03.662Z,2.70
2022-08-26T09:28:32.066Z,2.85
2022-08-26T09:31:32.862Z,2.47
2022-08-26T09:34:26.475Z,3.03
2022-08-26T09:36:55.156Z,2.80
2022-08-26T09:39:27.963Z,2.78
2022-08-26T09:42:07.193Z,3.53
2022-08-26T10:17:16.973Z,2.72
2022-08-26T10:19:57.862Z,3.38
2022-08-26T10:22:36.929Z,2.92
2022-08-26T10:25:09.154Z,2.28
2022-08-26T10:27:55.031Z,3.45
2022-08-26T10:30:28.010Z,2.60
2022-08-26T10:33:04.869Z,4.72
2022-08-26T10:35:33.539Z,3.03
2022-08-26T10:38:12.120Z,2.60
2022-08-26T10:40:43.130Z,2.47
2022-08-26T10:43:17.966Z,2.40
2022-08-26T10:45:59.378Z,2.47
2022-08-26T10:48:59.985Z,3.45
2022-08-26T10:51:35.644Z,2.65
2022-08-26T10:54:09.460Z,2.53
2022-08-26T10:56:44.767Z,2.85
2022-08-26T10:59:21.502Z,2.50
2022-08-26T11:02:00.225Z,2.45
2022-08-26T11:04:37.172Z,2.53
2022-08-26T11:07:32.132Z,2.63
2022-08-26T11:10:23.006Z,2.72
2022-08-26T11:13:00.864Z,2.78
2022-08-26T11:15:29.337Z,2.33
2022-08-26T11:18:08.976Z,3.10
2022-08-26T11:20:36.200Z,2.47
2022-08-26T11:23:22.575Z,2.30
2022-08-26T11:26:07.743Z,2.60
2022-08-26T11:28:44.913Z,2.25
2022-08-26T11:34:00.169Z,2.95
2022-08-26T11:36:45.538Z,2.17
2022-08-26T11:39:30.431Z,3.38
2022-08-26T11:42:14.415Z,2.45
2022-08-26T11:44:49.598Z,2.72
2022-08-26T11:47:25.103Z,2.58
2022-08-26T11:50:07.524Z,2.57
2022-08-26T11:52:34.535Z,2.15
2022-08-26T11:55:11.778Z,2.70
2022-08-26T11:57:46.515Z,2.85
2022-08-26T12:00:26.563Z,2.80
2022-08-26T12:02:55.727Z,2.50
2022-08-26T12:05:29.540Z,2.50
2022-08-26T12:08:06.271Z,3.03
2022-08-26T12:10:35.232Z,2.40
2022-08-26T12:13:03.709Z,2.80
2022-08-26T12:15:32.333Z,2.97
2022-08-26T12:18:18.106Z,2.53
2022-08-26T12:20:56.844Z,2.97
2022-08-26T12:23:25.549Z,2.55
2022-08-26T12:26:03.117Z,2.38
2022-08-26T12:28:31.267Z,3.20
2022-08-26T12:31:03.704Z,3.67
2022-08-26T12:33:36.513Z,3.30
2022-08-26T12:36:06.110Z,5.10
2022-08-26T12:38:36.955Z,2.83
2022-08-26T12:41:04.222Z,2.53
2022-08-26T12:43:43.701Z,2.72
2022-08-26T12:46:16.408Z,3.03
2022-08-26T12:48:47.595Z,2.80
2022-08-26T12:51:30.267Z,2.80
2022-08-26T12:53:58.128Z,3.00
2022-08-26T12:56:41.176Z,3.08
2022-08-26T12:59:26.319Z,2.78
2022-08-26T13:01:55.059Z,2.75
2022-08-26T13:04:31.784Z,3.13
2022-08-26T13:07:22.487Z,3.10
2022-08-26T13:09:52.146Z,2.60
2022-08-26T13:12:32.711Z,3.60
2022-08-26T13:15:01.566Z,2.75
2022-08-26T13:17:30.356Z,2.80
2022-08-26T13:20:03.297Z,2.85
2022-08-26T13:22:30.931Z,2.85
2022-08-26T13:24:58.079Z,2.47
2022-08-26T13:27:27.287Z,2.83
2022-08-26T13:29:57.163Z,3.08
2022-08-26T13:32:26.891Z,2.40
2022-08-26T13:34:56.366Z,2.80
2022-08-26T13:37:34.178Z,2.83
2022-08-26T13:40:06.494Z,2.17
2022-08-26T13:42:34.520Z,3.00
2022-08-26T13:45:02.339Z,2.20
2022-08-26T13:47:29.683Z,4.05
2022-08-26T13:49:56.663Z,2.55
2022-08-26T13:52:27.338Z,3.25
2022-08-26T13:54:58.763Z,2.58
2022-08-26T13:57:28.027Z,2.70
2022-08-26T13:59:56.598Z,2.38
2022-08-26T14:02:23.697Z,2.75
2022-08-26T14:04:50.767Z,3.00
2022-08-26T14:07:17.710Z,2.90
2022-08-26T14:09:44.644Z,2.85
2022-08-26T14:12:11.739Z,2.47
2022-08-26T14:14:38.686Z,3.15
2022-08-26T14:17:06.980Z,2.65
2022-08-26T14:19:34.062Z,3.17
2022-08-26T14:22:01.825Z,3.65
2022-08-26T14:24:29.548Z,2.92
2022-08-26T14:26:56.579Z,2.95
2022-08-26T14:29:23.487Z,2.72
2022-08-26T14:31:50.424Z,3.60
2022-08-26T14:34:17.470Z,2.42
2022-08-26T14:36:44.416Z,2.25
2022-08-26T14:39:13.855Z,2.50
2022-08-26T14:41:53.719Z,3.05
2022-08-26T14:44:23.923Z,2.85
2022-08-26T14:46:53.004Z,2.55
2022-08-26T14:49:22.198Z,2.80
2022-08-26T14:51:49.908Z,3.17
2022-08-26T14:54:18.229Z,2.78
2022-08-26T14:57:01.092Z,2.85
2022-08-26T14:59:34.087Z,2.35
2022-08-26T15:02:01.852Z,2.55
2022-08-26T15:04:28.991Z,3.17
2022-08-26T15:06:58.822Z,2.55
2022-08-26T15:09:28.014Z,2.83
2022-08-26T15:11:55.172Z,3.08
2022-08-26T15:14:23.227Z,2.80
2022-08-26T15:16:53.294Z,2.53
2022-08-26T15:19:21.135Z,2.85
2022-08-26T15:21:48.145Z,3.75
2022-08-26T15:24:17.610Z,2.92
2022-08-26T15:26:45.819Z,2.80
2022-08-26T15:29:13.056Z,3.33
2022-08-26T15:31:40.539Z,2.72
2022-08-26T15:34:14.583Z,3.25
2022-08-26T15:36:46.036Z,3.70
2022-08-26T15:39:13.466Z,3.83
2022-08-26T15:41:40.622Z,2.97
2022-08-26T15:44:08.495Z,3.33
2022-08-26T15:46:37.532Z,2.38
2022-08-26T15:49:06.057Z,2.88
2022-08-26T15:51:45.116Z,3.20
2022-08-26T15:54:16.753Z,2.97
2022-08-26T15:56:44.104Z,2.83
2022-08-26T15:59:12.052Z,3.70
2022-08-26T16:01:39.790Z,3.20
2022-08-26T16:04:07.272Z,3.70
2022-08-26T16:06:36.430Z,3.08
2022-08-26T16:09:04.553Z,3.13
2022-08-26T16:11:31.637Z,2.72
2022-08-26T16:13:58.698Z,3.50
2022-08-26T16:16:26.463Z,2.40
2022-08-26T16:18:53.824Z,3.67
2022-08-26T16:21:24.750Z,3.53
2022-08-26T16:23:52.267Z,2.65
2022-08-26T16:26:22.840Z,3.63
2022-08-26T16:28:49.987Z,2.70
2022-08-26T16:31:17.541Z,2.80
2022-08-26T16:33:44.481Z,3.00
2022-08-26T16:36:12.170Z,3.17
2022-08-26T16:38:40.729Z,3.08
2022-08-26T16:41:09.159Z,2.60
2022-08-26T16:43:36.849Z,4.40
2022-08-26T16:46:07.201Z,2.63
2022-08-26T16:48:35.067Z,2.67
2022-08-26T16:51:02.052Z,3.03
2022-08-26T16:53:29.128Z,3.63
2022-08-26T16:55:56.055Z,2.47
2022-08-26T16:58:23.128Z,2.55
2022-08-26T17:00:50.150Z,2.35
2022-08-26T17:03:17.899Z,3.58
2022-08-26T17:05:44.975Z,3.53
2022-08-26T17:08:14.522Z,2.58
2022-08-26T17:10:51.790Z,2.22
2022-08-26T17:13:29.697Z,2.92
2022-08-26T17:16:05.065Z,2.33
2022-08-26T17:18:33.556Z,3.10
2022-08-26T17:21:12.837Z,2.80
2022-08-26T17:23:41.807Z,2.72
2022-08-26T17:26:10.920Z,2.97
2022-08-26T17:28:38.270Z,2.97
2022-08-26T17:31:06.736Z,2.50
2022-08-26T17:33:33.748Z,2.22
2022-08-26T17:36:00.978Z,2.50
2022-08-26T17:38:29.307Z,3.30
2022-08-26T17:40:57.584Z,3.05
2022-08-26T17:43:26.834Z,3.03
2022-08-26T17:46:07.069Z,3.13
2022-08-26T17:48:36.220Z,2.92
2022-08-26T17:51:11.242Z,3.03
2022-08-26T17:53:38.941Z,2.92
2022-08-26T17:56:08.325Z,2.72
2022-08-26T17:58:35.784Z,2.80
2022-08-26T18:01:03.197Z,3.33
2022-08-26T18:03:30.196Z,2.70
2022-08-26T18:05:57.533Z,3.78
2022-08-26T18:08:24.811Z,2.97
2022-08-26T18:10:51.850Z,2.88
2022-08-26T18:13:19.122Z,2.80
2022-08-26T18:15:47.335Z,3.15
2022-08-26T18:18:15.382Z,3.28
2022-08-26T18:20:44.103Z,3.60
2022-08-26T18:23:12.537Z,2.78
2022-08-26T18:25:41.828Z,3.20
2022-08-26T18:28:09.242Z,3.20
2022-08-26T18:30:36.390Z,3.05
2022-08-26T18:33:03.572Z,3.63
2022-08-26T18:35:30.716Z,3.38
2022-08-26T18:38:00.825Z,3.55
2022-08-26T18:40:39.843Z,3.72
2022-08-26T18:43:07.071Z,3.88
2022-08-26T18:45:34.670Z,4.38
2022-08-26T18:48:03.767Z,3.42
2022-08-26T18:50:30.866Z,4.43
2022-08-26T18:52:57.794Z,3.38
2022-08-26T18:55:24.927Z,3.78
2022-08-26T18:57:51.901Z,4.35
2022-08-26T19:00:18.940Z,4.25
2022-08-26T19:02:47.069Z,3.60
2022-08-26T19:05:19.921Z,3.58
2022-08-26T19:07:47.990Z,4.57
2022-08-26T19:10:15.130Z,3.67
2022-08-26T19:12:42.529Z,3.33
2022-08-26T19:15:11.297Z,3.38
2022-08-26T19:17:38.250Z,3.63
2022-08-26T19:20:06.035Z,3.42
2022-08-26T19:22:33.314Z,3.35
2022-08-26T19:25:00.919Z,3.63
2022-08-26T19:27:28.055Z,3.05
2022-08-26T19:29:57.436Z,3.35
2022-08-26T19:32:25.386Z,3.75
2022-08-26T19:34:52.820Z,3.20
2022-08-26T19:37:20.488Z,3.80
2022-08-26T19:39:47.888Z,3.50
2022-08-26T19:42:14.837Z,3.70
2022-08-26T19:45:00.398Z,4.05
2022-08-26T19:47:27.453Z,4.07
2022-08-26T19:49:55.605Z,3.72
2022-08-26T19:52:24.438Z,3.22
2022-08-26T19:54:57.390Z,3.00
2022-08-26T19:57:24.512Z,3.55
2022-08-26T19:59:51.486Z,3.15
2022-08-26T20:02:19.355Z,3.88
2022-08-26T20:04:46.357Z,3.33
2022-08-26T20:07:18.527Z,3.65
2022-08-26T20:09:47.088Z,4.07
2022-08-26T20:12:15.251Z,3.63
2022-08-26T20:14:42.640Z,3.03
2022-08-26T20:17:09.678Z,3.80
2022-08-26T20:19:55.152Z,4.22
2022-08-26T20:22:22.483Z,3.67
2022-08-26T20:24:49.843Z,3.80
2022-08-26T20:27:16.779Z,5.30
2022-08-26T20:29:43.750Z,4.28
2022-08-26T20:32:12.089Z,4.85
2022-08-26T20:34:40.087Z,3.80
2022-08-26T20:37:08.561Z,3.75
2022-08-26T20:39:35.853Z,4.97
2022-08-26T20:42:03.378Z,4.78
2022-08-26T20:44:30.615Z,3.78
2022-08-26T20:46:59.251Z,4.57
2022-08-26T20:49:27.794Z,4.00
2022-08-26T20:51:55.137Z,4.25
2022-08-26T20:54:28.270Z,4.20
2022-08-26T20:56:57.000Z,4.45
2022-08-26T20:59:24.572Z,5.78
2022-08-26T21:01:52.031Z,4.03
2022-08-26T21:04:22.764Z,4.05
2022-08-26T21:06:52.712Z,5.25
2022-08-26T21:09:22.545Z,4.47
2022-08-26T21:11:50.118Z,4.10
2022-08-26T21:14:17.824Z,4.00
2022-08-26T21:16:46.087Z,4.15
2022-08-26T21:19:15.394Z,3.70
2022-08-26T21:21:42.602Z,3.97
2022-08-26T21:24:10.237Z,3.92
2022-08-26T21:26:37.320Z,3.97
2022-08-26T21:29:05.076Z,5.82
2022-08-26T21:31:32.306Z,4.53
2022-08-26T21:33:59.911Z,4.90
2022-08-26T21:36:27.268Z,3.92
2022-08-26T21:38:58.198Z,4.20
2022-08-26T21:41:25.880Z,3.88
2022-08-26T21:43:55.718Z,5.25
2022-08-26T21:46:24.025Z,4.10
2022-08-26T21:49:00.565Z,4.50
2022-08-26T21:53:59.640Z,4.57
2022-08-26T21:56:29.278Z,5.30
2022-08-26T21:58:56.802Z,4.85
2022-08-26T22:01:26.934Z,4.40
2022-08-26T22:03:54.653Z,4.00
2022-08-26T22:06:26.146Z,4.28
2022-08-26T22:08:54.125Z,3.90
2022-08-26T22:11:21.591Z,5.25
2022-08-26T22:13:49.004Z,4.57
2022-08-26T22:16:16.956Z,3.97
2022-08-26T22:18:45.855Z,4.70
2022-08-26T22:21:19.373Z,5.05
2022-08-26T22:23:46.858Z,4.78
2022-08-26T22:26:25.200Z,3.88
2022-08-26T22:28:54.818Z,5.50
2022-08-26T22:31:28.098Z,4.47
2022-08-26T22:34:07.159Z,5.15
2022-08-26T22:36:34.195Z,5.18
2022-08-26T22:39:01.253Z,4.95
2022-08-26T22:41:28.301Z,4.80
2022-08-26T22:43:55.505Z,4.10
2022-08-26T22:46:25.538Z,4.35
2022-08-26T22:48:53.923Z,4.43
2022-08-26T22:51:22.180Z,4.63
2022-08-26T22:53:49.505Z,4.40
2022-08-26T22:56:18.428Z,4.25
2022-08-26T22:58:45.740Z,5.82
2022-08-26T23:01:13.368Z,7.53
2022-08-26T23:03:40.416Z,5.38
2022-08-26T23:06:10.266Z,4.57
2022-08-26T23:08:38.937Z,4.78
2022-08-26T23:11:10.747Z,7.78
2022-08-26T23:13:38.714Z,5.38
2022-08-26T23:16:09.873Z,3.97
2022-08-26T23:18:37.458Z,5.20
2022-08-26T23:21:05.036Z,4.60
2022-08-26T23:23:32.878Z,6.10
2022-08-26T23:26:03.239Z,4.25
2022-08-26T23:28:32.593Z,6.20
2022-08-26T23:30:59.764Z,4.85
2022-08-26T23:33:46.652Z,6.22
2022-08-26T23:36:17.875Z,5.88
2022-08-26T23:38:52.915Z,5.65
2022-08-26T23:41:22.942Z,5.57
2022-08-26T23:43:51.660Z,5.53
2022-08-26T23:46:19.273Z,5.65
2022-08-26T23:48:46.631Z,4.90
2022-08-26T23:51:31.981Z,5.00
2022-08-26T23:53:59.001Z,5.85
2022-08-26T23:56:26.742Z,5.30
2022-08-26T23:58:54.607Z,5.60
